Data for 04/12/2009

Time Sea-Level Adjusted Pressure Absolute Pressure Temperature Relative Humidity Dew Point   
(mb) (inHg) (mb) (inHg) (C) (F) (%) (C) (F)
00:05 1016 30 845 24.95 5.6 42.1 86 3.5 38.2
00:10 1016 30 845 24.95 5.5 42 86 3.4 38.1
00:15 1016 30 845 24.95 5.7 42.2 82 2.9 37.3
00:20 1016 30 845 24.95 5.5 41.9 84 3 37.4
00:25 1016 30 845 24.95 5.3 41.6 83 2.6 36.7
00:30 1016 30 845 24.95 5.2 41.3 84 2.6 36.7
00:35 1016 30 845 24.95 5 41 84 2.5 36.5
00:40 1016 30 846 24.98 4.8 40.6 85 2.4 36.4
00:45 1016 30 846 24.98 4.7 40.4 86 2.6 36.7
00:50 1016 30 846 24.98 4.7 40.5 85 2.4 36.3
00:55 1016 30 846 24.98 4.8 40.6 85 2.5 36.6
01:00 1016 30 846 24.98 4.8 40.7 84 2.3 36.1
01:05 1016 30 846 24.98 4.9 40.8 84 2.4 36.3
01:10 1017 30.03 846 24.98 5 41.1 81 2.1 35.8
01:15 1017 30.03 846 24.98 5 41 83 2.3 36.1
01:20 1017 30.03 846 24.98 4.8 40.7 83 2.1 35.8
01:25 1017 30.03 846 24.98 4.8 40.6 85 2.4 36.3
01:30 1017 30.03 846 24.98 4.8 40.6 83 2.1 35.8
01:35 1017 30.03 846 24.98 4.9 40.9 82 2.1 35.7
01:40 1017 30.03 846 24.98 5.1 41.3 80 1.9 35.4
01:45 1017 30.03 846 24.98 5.2 41.3 80 2 35.6
01:50 1017 30.03 846 24.98 5.1 41.2 80 2 35.5
01:55 1017 30.03 846 24.98 5.1 41.1 80 1.9 35.3
02:00 1017 30.03 846 24.98 5.1 41.1 81 2.1 35.7
02:05 1017 30.03 846 24.98 5 41 81 2 35.6
02:10 1017 30.03 846 24.98 5.1 41.2 80 2 35.7
02:15 1017 30.03 846 24.98 5.4 41.8 76 1.6 34.9
02:20 1017 30.03 846 24.98 5.7 42.2 76 1.8 35.3
02:25 1017 30.03 846 24.98 5.8 42.4 73 1.3 34.4
02:30 1017 30.03 846 24.98 5.8 42.5 74 1.5 34.7
02:35 1017 30.03 846 24.98 5.7 42.3 74 1.5 34.7
02:40 1017 30.03 846 24.98 5.6 42.1 73 1.2 34.2
02:45 1017 30.03 846 24.98 5.6 42 73 1.2 34.1
02:50 1017 30.03 846 24.98 5.5 41.9 73 1 33.9
02:55 1017 30.03 846 24.98 5.5 41.9 73 1 33.8
03:00 1017 30.03 846 24.98 5.4 41.7 74 1.1 34
03:05 1017 30.03 846 24.98 5.3 41.5 75 1.2 34.2
03:10 1017 30.03 846 24.98 5.1 41.2 73 0.7 33.3
03:15 1017 30.03 846 24.98 5.1 41.3 72 0.5 32.9
03:20 1017 30.03 846 24.98 5.2 41.3 71 0.3 32.6
03:25 1017 30.03 846 24.98 5.2 41.3 70 0.2 32.3
03:30 1017 30.03 846 24.98 5.1 41.3 71 0.4 32.7
03:35 1017 30.03 847 25.01 5 41.1 71 0.2 32.3
03:40 1017 30.03 847 25.01 5 41 70 -0 31.9
03:45 1017 30.03 847 25.01 5 41 69 -0.1 31.8
03:50 1018 30.06 847 25.01 5 41 70 -0.1 31.8
03:55 1018 30.06 847 25.01 5 41 69 -0.2 31.7
04:00 1018 30.06 847 25.01 5 41 69 -0.2 31.6
04:05 1018 30.06 847 25.01 5 41 70 -0.1 31.9
04:10 1018 30.06 847 25.01 5 40.9 70 0 32
04:15 1018 30.06 847 25.01 4.9 40.8 71 0 32
04:20 1018 30.06 847 25.01 4.8 40.7 71 -0.1 31.9
04:25 1018 30.06 847 25.01 4.7 40.5 72 0.1 32.2
04:30 1018 30.06 847 25.01 4.6 40.3 72 0.1 32.1
04:35 1018 30.06 847 25.01 4.5 40.1 72 -0.1 31.8
04:40 1018 30.06 847 25.01 4.4 39.9 72 -0.1 31.8
04:45 1018 30.06 847 25.01 4.4 40 71 -0.3 31.5
04:50 1018 30.06 847 25.01 4.4 40 72 -0.3 31.5
04:55 1018 30.06 847 25.01 4.5 40.1 71 -0.3 31.4
05:00 1018 30.06 847 25.01 4.5 40.1 71 -0.3 31.4
05:05 1018 30.06 848 25.04 4.5 40 71 -0.4 31.3
05:10 1018 30.06 848 25.04 4.4 39.9 71 -0.5 31.2
05:15 1019 30.09 848 25.04 4.4 39.9 71 -0.4 31.2
05:20 1019 30.09 848 25.04 4.4 39.9 70 -0.6 30.9
05:25 1019 30.09 848 25.04 4.5 40 70 -0.6 31
05:30 1019 30.09 848 25.04 4.5 40.2 70 -0.5 31.1
05:35 1019 30.09 848 25.04 4.6 40.2 69 -0.6 30.9
05:40 1019 30.09 848 25.04 4.7 40.4 69 -0.6 30.9
05:45 1019 30.09 848 25.04 4.7 40.5 67 -0.8 30.6
05:50 1019 30.09 848 25.04 4.8 40.6 68 -0.5 31
05:55 1019 30.09 848 25.04 4.7 40.4 69 -0.5 31
06:00 1019 30.09 848 25.04 4.6 40.2 70 -0.5 31.1
06:05 1019 30.09 848 25.04 4.6 40.2 70 -0.4 31.3
06:10 1019 30.09 848 25.04 4.4 39.9 72 -0.1 31.8
06:15 1019 30.09 848 25.04 4.3 39.8 72 -0.3 31.5
06:20 1019 30.09 849 25.07 4.4 39.9 69 -0.8 30.6
06:25 1019 30.09 849 25.07 4.4 39.9 69 -0.7 30.7
06:30 1019 30.09 849 25.07 4.3 39.7 70 -0.8 30.6
06:35 1019 30.09 849 25.07 4 39.2 71 -0.7 30.7
06:40 1020 30.12 849 25.07 3.9 39 71 -1 30.2
06:45 1020 30.12 849 25.07 3.9 39.1 70 -1 30.3
06:50 1020 30.12 849 25.07 3.9 38.9 70 -1.1 30
06:55 1020 30.12 849 25.07 3.8 38.8 70 -1.2 29.9
07:00 1020 30.12 849 25.07 3.8 38.9 70 -1.1 30
07:05 1020 30.12 849 25.07 3.8 38.9 70 -1.1 30
07:10 1020 30.12 849 25.07 3.8 38.8 69 -1.3 29.6
07:15 1020 30.12 849 25.07 4 39.2 67 -1.5 29.3
07:20 1020 30.12 849 25.07 4.1 39.4 68 -1.3 29.7
07:25 1020 30.12 849 25.07 3.9 39.1 68 -1.5 29.3
07:30 1020 30.12 849 25.07 4 39.1 68 -1.5 29.4
07:35 1020 30.12 849 25.07 4 39.2 67 -1.6 29.1
07:40 1020 30.12 850 25.1 4 39.3 66 -1.8 28.8
07:45 1020 30.12 850 25.1 4.2 39.6 66 -1.6 29.1
07:50 1020 30.12 850 25.1 4.4 39.9 65 -1.6 29.1
07:55 1021 30.15 850 25.1 4.4 40 65 -1.5 29.2
08:00 1021 30.15 850 25.1 4.6 40.2 65 -1.4 29.6
08:05 1021 30.15 850 25.1 4.8 40.6 63 -1.7 28.9
08:10 1021 30.15 850 25.1 4.8 40.6 64 -1.4 29.4
08:15 1021 30.15 850 25.1 4.8 40.7 64 -1.5 29.3
08:20 1021 30.15 850 25.1 4.7 40.5 63 -1.7 28.9
08:25 1021 30.15 850 25.1 5 40.9 62 -1.6 29.1
08:30 1021 30.15 850 25.1 4.9 40.8 63 -1.7 29
08:35 1021 30.15 850 25.1 5 41 62 -1.6 29.1
08:40 1021 30.15 850 25.1 5.1 41.1 62 -1.6 29.2
08:45 1021 30.15 850 25.1 5.2 41.4 59 -2.1 28.2
08:50 1021 30.15 850 25.1 5.7 42.3 57 -2.2 28.1
08:55 1021 30.15 850 25.1 6.3 43.3 52 -2.9 26.7
09:00 1021 30.15 850 25.1 6.7 44.1 50 -3 26.6
09:05 1021 30.15 850 25.1 7.1 44.8 48 -3 26.5
09:10 1021 30.15 850 25.1 7.4 45.4 46 -3.3 26
09:15 1021 30.15 850 25.1 7.5 45.5 47 -2.9 26.7
09:20 1021 30.15 850 25.1 7.3 45.1 46 -3.4 25.8
09:25 1021 30.15 850 25.1 7.3 45.1 46 -3.5 25.8
09:30 1021 30.15 851 25.13 7.4 45.4 46 -3.4 26
09:35 1021 30.15 851 25.13 7.4 45.3 46 -3.6 25.6
09:40 1021 30.15 851 25.13 7.6 45.8 46 -3.3 26.1
09:45 1021 30.15 851 25.13 7.9 46.2 41 -4.5 23.9
09:50 1021 30.15 851 25.13 7.6 45.7 42 -4.5 23.9
09:55 1022 30.18 851 25.13 7.8 46 43 -4.1 24.6
10:00 1022 30.18 851 25.13 8.7 47.7 40 -4.1 24.6
10:05 1022 30.18 851 25.13 8.6 47.4 40 -4.4 24.1
10:10 1022 30.18 851 25.13 8.3 46.9 41 -4.1 24.6
10:15 1022 30.18 851 25.13 8.7 47.6 38 -4.7 23.5
10:20 1022 30.18 851 25.13 8.9 48.1 36 -5.3 22.5
10:25 1022 30.18 851 25.13 8.9 48 39 -4.2 24.4
10:30 1021 30.15 851 25.13 9.5 49 35 -5.3 22.5
10:35 1021 30.15 851 25.13 8.8 47.9 37 -5 23.1
10:40 1021 30.15 851 25.13 8.8 47.8 37 -5.1 22.8
10:45 1021 30.15 850 25.1 8.8 47.9 38 -4.5 23.8
10:50 1021 30.15 850 25.1 9.1 48.5 35 -5.7 21.8
10:55 1021 30.15 850 25.1 9.7 49.5 34 -5.3 22.5
11:00 1021 30.15 850 25.1 9.4 48.9 35 -5.3 22.5
11:05 1021 30.15 850 25.1 9.1 48.3 37 -4.7 23.5
11:10 1021 30.15 850 25.1 8.3 47 37 -5.4 22.3
11:15 1021 30.15 850 25.1 8.9 48 37 -5.2 22.7
11:20 1021 30.15 850 25.1 9.6 49.3 34 -5.5 22
11:25 1021 30.15 850 25.1 9.6 49.3 35 -5.2 22.7
11:30 1021 30.15 850 25.1 8.7 47.6 36 -5.6 22
11:35 1021 30.15 850 25.1 8.5 47.2 36 -5.7 21.7
11:40 1021 30.15 850 25.1 9.1 48.3 37 -5 23
11:45 1021 30.15 850 25.1 9.2 48.6 33 -6.1 21
11:50 1021 30.15 850 25.1 10.6 51.1 31 -5.8 21.6
11:55 1021 30.15 850 25.1 10.5 50.8 32 -5.3 22.4
12:00 1021 30.15 850 25.1 9.8 49.7 33 -5.6 21.9
12:05 1021 30.15 850 25.1 9.9 49.9 34 -5.3 22.4
12:10 1021 30.15 850 25.1 10.5 50.9 32 -5.5 22.1
12:15 1021 30.15 850 25.1 10.7 51.3 32 -5.2 22.7
12:20 1021 30.15 850 25.1 10.5 50.9 33 -5.2 22.7
12:25 1021 30.15 850 25.1 11 51.7 32 -4.9 23.1
12:30 1021 30.15 850 25.1 10.7 51.2 33 -5.1 22.9
12:35 1021 30.15 850 25.1 10.8 51.4 32 -5.1 22.9
12:40 1021 30.15 850 25.1 10.9 51.7 31 -5.5 22
12:45 1021 30.15 850 25.1 11.1 52 31 -5.3 22.4
12:50 1021 30.15 850 25.1 11.5 52.6 30 -5.3 22.5
12:55 1021 30.15 850 25.1 11.7 53.1 28 -6.1 21.1
13:00 1021 30.15 850 25.1 11.6 52.9 30 -5.5 22.1
13:05 1021 30.15 850 25.1 11.7 53.1 30 -5.4 22.2
13:10 1020 30.12 850 25.1 12.1 53.7 27 -6.1 21
13:15 1020 30.12 850 25.1 11.9 53.4 28 -6.1 21.1
13:20 1020 30.12 850 25.1 12.2 53.9 27 -6.2 20.9
13:25 1020 30.12 849 25.07 11.5 52.8 30 -5.3 22.5
13:30 1020 30.12 849 25.07 12.1 53.8 28 -5.7 21.8
13:35 1020 30.12 849 25.07 12.6 54.7 24 -7.4 18.7
13:40 1020 30.12 849 25.07 12.4 54.4 26 -6.3 20.6
13:45 1020 30.12 849 25.07 12.9 55.1 27 -5.9 21.4
13:50 1020 30.12 849 25.07 13.1 55.5 26 -6 21.2
13:55 1020 30.12 849 25.07 12.9 55.1 26 -6.3 20.7
14:00 1020 30.12 849 25.07 12.9 55.2 24 -6.9 19.5
14:05 1020 30.12 849 25.07 13.3 56 23 -7.3 18.9
14:10 1020 30.12 849 25.07 13.1 55.5 23 -7.3 18.9
14:15 1020 30.12 849 25.07 13.5 56.3 21 -8.2 17.2
14:20 1020 30.12 849 25.07 13.5 56.3 21 -8.6 16.4
14:25 1020 30.12 849 25.07 13.8 56.8 19 -9.4 15
14:30 1020 30.12 849 25.07 13.7 56.6 20 -8.7 16.3
14:35 1020 30.12 849 25.07 13.8 56.9 21 -8.2 17.3
14:40 1020 30.12 849 25.07 13.7 56.7 21 -7.9 17.8
14:45 1020 30.12 849 25.07 13.8 56.8 23 -7 19.4
14:50 1020 30.12 849 25.07 13.8 56.8 24 -6.6 20
14:55 1020 30.12 849 25.07 13.3 56 25 -6.5 20.3
15:00 1020 30.12 849 25.07 13.1 55.5 24 -7 19.5
15:05 1020 30.12 849 25.07 13.9 57 24 -6.4 20.4
15:10 1019 30.09 849 25.07 12.9 55.2 26 -6.3 20.7
15:15 1019 30.09 849 25.07 12.7 54.9 25 -6.6 20.1
15:20 1019 30.09 849 25.07 13.1 55.6 24 -6.7 19.9
15:25 1019 30.09 848 25.04 13.6 56.5 25 -6.1 21
15:30 1019 30.09 848 25.04 13.7 56.7 24 -6.7 20
15:35 1019 30.09 848 25.04 14.2 57.6 24 -5.9 21.4
15:40 1019 30.09 848 25.04 14.1 57.3 23 -6.5 20.3
15:45 1019 30.09 848 25.04 14.3 57.7 24 -5.7 21.7
15:50 1019 30.09 848 25.04 14.4 58 24 -6 21.2
15:55 1019 30.09 848 25.04 14.7 58.5 23 -6 21.2
16:00 1019 30.09 848 25.04 14.7 58.5 23 -6.3 20.6
16:05 1019 30.09 848 25.04 15.2 59.4 23 -5.7 21.8
16:10 1019 30.09 848 25.04 14.6 58.2 22 -6.6 20
16:15 1019 30.09 848 25.04 15 59.1 21 -6.8 19.7
16:20 1019 30.09 848 25.04 15.3 59.5 21 -6.7 19.9
16:25 1019 30.09 848 25.04 14.7 58.5 22 -6.6 20.2
16:30 1019 30.09 848 25.04 14.1 57.4 22 -7.2 19.1
16:35 1019 30.09 848 25.04 14.3 57.8 23 -6.7 19.9
16:40 1019 30.09 848 25.04 15.1 59.2 21 -6.9 19.6
16:45 1019 30.09 848 25.04 14.6 58.4 21 -7.1 19.2
16:50 1019 30.09 848 25.04 14.5 58.2 21 -7.4 18.7
16:55 1019 30.09 848 25.04 14.9 58.8 21 -7.4 18.7
17:00 1019 30.09 848 25.04 14.8 58.7 20 -7.6 18.3
17:05 1018 30.06 848 25.04 14.9 58.8 21 -7.1 19.3
17:10 1018 30.06 848 25.04 15 58.9 21 -7.2 19
17:15 1018 30.06 848 25.04 14.5 58.2 21 -7.4 18.6
17:20 1018 30.06 848 25.04 14.6 58.2 21 -7.2 19
17:25 1018 30.06 848 25.04 14.9 58.7 22 -6.8 19.8
17:30 1018 30.06 848 25.04 14.9 58.8 21 -7.2 19.1
17:35 1018 30.06 848 25.04 15.2 59.3 21 -7 19.5
17:40 1018 30.06 848 25.04 14.6 58.3 22 -7 19.4
17:45 1018 30.06 848 25.04 14.2 57.6 22 -7.4 18.8
17:50 1018 30.06 848 25.04 14.1 57.3 22 -7.5 18.5
17:55 1018 30.06 848 25.04 14.3 57.8 21 -7.6 18.2
18:00 1018 30.06 848 25.04 14.9 58.8 21 -7.4 18.6
18:05 1018 30.06 848 25.04 14.8 58.7 21 -7.6 18.4
18:10 1018 30.06 848 25.04 14.7 58.4 21 -7.1 19.2
18:15 1018 30.06 848 25.04 14.6 58.3 21 -7.3 18.8
18:20 1018 30.06 847 25.01 14.6 58.3 21 -7.4 18.8
18:25 1018 30.06 847 25.01 14.7 58.4 22 -6.9 19.5
18:30 1018 30.06 847 25.01 14.3 57.7 21 -7.5 18.5
18:35 1018 30.06 847 25.01 13.9 57.1 22 -7.3 18.9
18:40 1018 30.06 847 25.01 13.9 57 23 -6.8 19.8
18:45 1018 30.06 847 25.01 13.8 56.8 22 -7.3 18.9
18:50 1018 30.06 847 25.01 13.6 56.5 22 -7.8 18
18:55 1018 30.06 847 25.01 13.6 56.5 22 -7.9 17.8
19:00 1018 30.06 847 25.01 13.6 56.5 22 -7.8 18
19:05 1018 30.06 847 25.01 13.6 56.5 24 -6.8 19.8
19:10 1018 30.06 847 25.01 13.6 56.5 23 -6.8 19.7
19:15 1018 30.06 847 25.01 13.6 56.4 22 -7.4 18.7
19:20 1018 30.06 847 25.01 13.5 56.3 24 -6.6 20.1
19:25 1018 30.06 847 25.01 13.4 56.1 25 -6 21.2
19:30 1018 30.06 847 25.01 13.4 56.2 25 -6.2 20.8
19:35 1018 30.06 847 25.01 13.3 55.9 26 -5.8 21.5
19:40 1018 30.06 847 25.01 13.1 55.6 26 -5.7 21.7
19:45 1018 30.06 847 25.01 13 55.4 27 -5.7 21.7
19:50 1018 30.06 847 25.01 12.8 55.1 28 -5.4 22.3
19:55 1018 30.06 847 25.01 12.7 54.8 28 -5.3 22.5
20:00 1018 30.06 847 25.01 12.3 54.2 29 -5.1 22.7
20:05 1018 30.06 847 25.01 11.7 53.1 32 -4.6 23.8
20:10 1018 30.06 847 25.01 11.4 52.5 31 -5.1 22.9
20:15 1018 30.06 847 25.01 11.3 52.4 31 -5.2 22.7
20:20 1018 30.06 847 25.01 11.2 52.1 31 -5.3 22.5
20:25 1018 30.06 847 25.01 11 51.8 31 -5.5 22.1
20:30 1018 30.06 847 25.01 10.9 51.7 30 -5.8 21.6
20:35 1018 30.06 847 25.01 10.9 51.5 33 -4.7 23.5
20:40 1018 30.06 847 25.01 10 50 39 -3.2 26.3
20:45 1018 30.06 847 25.01 9.3 48.7 39 -4 24.7
20:50 1018 30.06 847 25.01 9.2 48.6 39 -3.9 25
20:55 1018 30.06 847 25.01 9.1 48.3 40 -4 24.9
21:00 1018 30.06 847 25.01 8.8 47.8 40 -3.9 25
21:05 1018 30.06 847 25.01 8.5 47.3 41 -4 24.8
21:10 1018 30.06 847 25.01 8.5 47.3 40 -4.2 24.4
21:15 1018 30.06 847 25.01 8.4 47.1 40 -4.3 24.3
21:20 1018 30.06 847 25.01 8.4 47.1 40 -4.4 24.2
21:25 1018 30.06 847 25.01 8.6 47.5 39 -4.6 23.6
21:30 1018 30.06 847 25.01 8.7 47.6 38 -4.7 23.6
21:35 1018 30.06 847 25.01 8.7 47.6 38 -4.8 23.3
21:40 1018 30.06 847 25.01 8.7 47.6 38 -4.7 23.5
21:45 1018 30.06 847 25.01 8.7 47.7 38 -4.7 23.6
21:50 1018 30.06 847 25.01 8.6 47.4 37 -5.2 22.6
21:55 1018 30.06 847 25.01 8.5 47.3 38 -5 23.1
22:00 1018 30.06 847 25.01 8.4 47.1 39 -4.7 23.5
22:05 1018 30.06 847 25.01 8.3 47 39 -4.8 23.4
22:10 1018 30.06 847 25.01 8.3 47 38 -5 23
22:15 1018 30.06 847 25.01 8.5 47.2 38 -5.1 22.9
22:20 1018 30.06 847 25.01 8.3 46.9 39 -4.9 23.1
22:25 1018 30.06 847 25.01 8 46.4 41 -4.5 23.9
22:30 1018 30.06 847 25.01 7.5 45.6 41 -4.9 23.2
22:35 1018 30.06 847 25.01 7.7 45.8 39 -5.5 22.1
22:40 1018 30.06 847 25.01 8 46.5 37 -5.7 21.7
22:45 1018 30.06 847 25.01 8 46.4 39 -5 23.1
22:50 1018 30.06 847 25.01 7.9 46.1 41 -4.5 23.9
22:55 1018 30.06 847 25.01 7.7 45.9 41 -4.7 23.6
23:00 1018 30.06 847 25.01 7.9 46.1 40 -5 23
23:05 1018 30.06 847 25.01 8.1 46.6 40 -4.6 23.7
23:10 1018 30.06 847 25.01 7.7 45.8 42 -4.5 23.9
23:15 1017 30.03 847 25.01 7.3 45.2 43 -4.4 24
23:20 1017 30.03 847 25.01 7.4 45.2 42 -4.9 23.3
23:25 1017 30.03 847 25.01 7.5 45.4 41 -4.8 23.4
23:30 1017 30.03 847 25.01 7.3 45.1 42 -4.8 23.4
23:35 1017 30.03 846 24.98 7.3 45.1 41 -5 23
23:40 1017 30.03 846 24.98 7.5 45.5 40 -5.4 22.3
23:45 1017 30.03 846 24.98 7.7 45.8 41 -4.8 23.3
23:50 1017 30.03 846 24.98 7.6 45.7 41 -5 23.1
23:55 1017 30.03 846 24.98 7.6 45.6 38 -5.7 21.8
24:00 1017 30.03 846 24.98 7.5 45.6 39 -5.5 22.1